Erbach Airport


Codes: EDNE/
Name: Erbach Airport
City: Erbach
Country: Germany
Elevation: 1558 ft.

Photos at Erbach Airport


   Photos courtesy of SpottingLog. You can add your own sightings and photos by signing up for a free trial today.



No photos found.

Weather at Erbach Airport


Time (UTC)DescriptionTempratureWindCloud coverageVisibilityPressureHumidity
25-Jun-2024 15:00Scattered Clouds25°C11 mph, NE36%10000m1012hPa66%
25-Jun-2024 18:00Scattered Clouds23°C7 mph, NE41%10000m1011hPa77%
25-Jun-2024 21:00Light Rain17°C7 mph, N17%10000m1010hPa90%
26-Jun-2024 00:00Moderate Rain15°C0 mph, W14%1496m1011hPa95%
26-Jun-2024 03:00Light Rain15°C2 mph, W57%10000m1010hPa95%
26-Jun-2024 06:00Light Rain18°C2 mph, SW50%10000m1011hPa92%
26-Jun-2024 09:00Broken Clouds22°C2 mph, NW75%10000m1010hPa79%
26-Jun-2024 12:00Light Rain22°C2 mph, W87%10000m1010hPa80%
26-Jun-2024 15:00Light Rain24°C4 mph, N86%10000m1009hPa75%
26-Jun-2024 18:00Moderate Rain21°C2 mph, N95%10000m1009hPa83%
26-Jun-2024 21:00Light Rain18°C9 mph, SW100%10000m1010hPa94%
27-Jun-2024 00:00Light Rain16°C9 mph, SW99%10000m1011hPa96%
27-Jun-2024 03:00Light Rain16°C7 mph, SW81%8610m1011hPa96%
27-Jun-2024 06:00Moderate Rain18°C9 mph, SW90%10000m1011hPa94%
27-Jun-2024 09:00Light Rain22°C7 mph, SW66%10000m1011hPa80%
27-Jun-2024 12:00Light Rain25°C9 mph, SW77%10000m1011hPa70%
27-Jun-2024 15:00Light Rain25°C9 mph, W19%10000m1011hPa78%
27-Jun-2024 18:00Light Rain22°C7 mph, W12%10000m1012hPa85%
27-Jun-2024 21:00Light Rain18°C7 mph, W6%10000m1014hPa90%
28-Jun-2024 00:00Scattered Clouds17°C4 mph, SW39%10000m1015hPa92%
28-Jun-2024 03:00Broken Clouds16°C7 mph, SW78%10000m1015hPa93%
28-Jun-2024 06:00Broken Clouds19°C7 mph, SW70%10000m1016hPa90%
28-Jun-2024 09:00Light Rain24°C7 mph, SW4%10000m1016hPa76%
28-Jun-2024 12:00Light Rain26°C4 mph, W55%10000m1016hPa68%
28-Jun-2024 15:00Light Rain26°C4 mph, N100%10000m1016hPa76%
28-Jun-2024 18:00Light Rain24°C4 mph, NE76%10000m1017hPa88%
28-Jun-2024 21:00Light Rain20°C4 mph, E65%10000m1017hPa95%
29-Jun-2024 00:00Light Rain18°C4 mph, NE36%10000m1016hPa98%
29-Jun-2024 03:00Scattered Clouds18°C4 mph, NE43%10000m1015hPa98%
29-Jun-2024 06:00Broken Clouds20°C7 mph, E60%10000m1013hPa93%
29-Jun-2024 09:00Broken Clouds25°C7 mph, E82%10000m1012hPa80%
29-Jun-2024 12:00Overcast Clouds28°C9 mph, E91%10000m1009hPa69%
29-Jun-2024 15:00Overcast Clouds29°C7 mph, NE99%10000m1006hPa72%
29-Jun-2024 18:00Light Rain25°C4 mph, NE99%10000m1004hPa85%
29-Jun-2024 21:00Moderate Rain17°C9 mph, NW100%10000m1010hPa93%
30-Jun-2024 00:00Overcast Clouds16°C9 mph, SW91%10000m1010hPa95%
30-Jun-2024 03:00Broken Clouds17°C11 mph, SW66%10000m1010hPa93%
30-Jun-2024 06:00Light Rain18°C11 mph, SW57%10000m1011hPa93%
30-Jun-2024 09:00Light Rain17°C9 mph, W100%10000m1012hPa92%
30-Jun-2024 12:00Light Rain18°C9 mph, NW100%10000m1012hPa84%